KCKM/CKM METAR and TAF weather

Enter ICAO airport designator
Station Type Date Time Source
KCKM METAR 2021/01/20 22:35 UTC NOAA

KCKM 202235Z AUTO 18003KT 10SM 10/01 A3025 RMK A01


Station Type Date Time Source
KCKM Decoded METAR 2021/01/20 22:35 UTC NOAA

Station name not available
Jan 20, 2021 - 05:35 PM EST / 2021.01.20 2235 UTC
Wind: from the S (180 degrees) at 3 MPH (3 KT):0
Visibility: 10 mile(s):0
Temperature: 50 F (10 C)
Dew Point: 33 F (1 C)
Relative Humidity: 53%
Pressure (altimeter): 30.25 in. Hg (1024 hPa)
ob: KCKM 202235Z AUTO 18003KT 10SM 10/01 A3025 RMK A01
cycle: 22

Station Type Date Time Source
KCKM TAF UTC NOAA

Error!

Example: see airport list